sensor_id;sensor_type;location;lat;lon;timestamp;P1;durP1;ratioP1;P2;durP2;ratioP2
3311;SDS011;1668;49.648;8.570;2023-04-15T00:00:08;9.43;;;5.13;;
3311;SDS011;1668;49.648;8.570;2023-04-15T00:02:36;12.10;;;5.50;;
3311;SDS011;1668;49.648;8.570;2023-04-15T00:05:03;12.03;;;5.97;;
3311;SDS011;1668;49.648;8.570;2023-04-15T00:07:32;11.23;;;5.80;;
3311;SDS011;1668;49.648;8.570;2023-04-15T00:10:00;9.40;;;5.30;;
3311;SDS011;1668;49.648;8.570;2023-04-15T00:12:28;8.97;;;4.40;;
3311;SDS011;1668;49.648;8.570;2023-04-15T00:14:55;8.03;;;4.90;;
3311;SDS011;1668;49.648;8.570;2023-04-15T00:17:23;8.57;;;5.17;;
3311;SDS011;1668;49.648;8.570;2023-04-15T00:19:50;8.07;;;4.70;;
3311;SDS011;1668;49.648;8.570;2023-04-15T00:22:17;8.53;;;5.07;;
3311;SDS011;1668;49.648;8.570;2023-04-15T00:24:43;10.60;;;5.50;;
3311;SDS011;1668;49.648;8.570;2023-04-15T00:27:12;11.43;;;4.53;;
3311;SDS011;1668;49.648;8.570;2023-04-15T00:29:39;7.43;;;5.00;;
3311;SDS011;1668;49.648;8.570;2023-04-15T00:32:06;8.60;;;4.80;;
3311;SDS011;1668;49.648;8.570;2023-04-15T00:34:33;7.30;;;4.27;;
3311;SDS011;1668;49.648;8.570;2023-04-15T00:37:00;9.10;;;4.50;;
3311;SDS011;1668;49.648;8.570;2023-04-15T00:39:27;8.13;;;4.80;;
3311;SDS011;1668;49.648;8.570;2023-04-15T00:41:54;9.63;;;5.47;;
3311;SDS011;1668;49.648;8.570;2023-04-15T00:44:24;7.10;;;4.43;;
3311;SDS011;1668;49.648;8.570;2023-04-15T00:46:51;8.57;;;3.77;;
3311;SDS011;1668;49.648;8.570;2023-04-15T00:49:18;10.97;;;4.30;;
3311;SDS011;1668;49.648;8.570;2023-04-15T00:51:45;12.70;;;3.97;;
3311;SDS011;1668;49.648;8.570;2023-04-15T00:54:12;7.87;;;3.97;;
3311;SDS011;1668;49.648;8.570;2023-04-15T00:56:39;12.23;;;4.90;;
3311;SDS011;1668;49.648;8.570;2023-04-15T00:59:06;8.20;;;4.53;;
3311;SDS011;1668;49.648;8.570;2023-04-15T01:01:35;9.00;;;4.10;;
3311;SDS011;1668;49.648;8.570;2023-04-15T01:04:02;7.40;;;4.40;;
3311;SDS011;1668;49.648;8.570;2023-04-15T01:06:31;9.40;;;5.23;;
3311;SDS011;1668;49.648;8.570;2023-04-15T01:08:58;8.50;;;4.63;;
3311;SDS011;1668;49.648;8.570;2023-04-15T01:11:25;7.63;;;4.00;;
3311;SDS011;1668;49.648;8.570;2023-04-15T01:13:53;8.57;;;4.10;;
3311;SDS011;1668;49.648;8.570;2023-04-15T01:16:22;7.43;;;3.50;;
3311;SDS011;1668;49.648;8.570;2023-04-15T01:18:50;8.37;;;4.20;;
3311;SDS011;1668;49.648;8.570;2023-04-15T01:21:17;6.57;;;4.50;;
3311;SDS011;1668;49.648;8.570;2023-04-15T01:23:46;7.07;;;3.63;;
3311;SDS011;1668;49.648;8.570;2023-04-15T01:26:14;9.30;;;4.37;;
3311;SDS011;1668;49.648;8.570;2023-04-15T01:28:42;6.17;;;4.20;;
3311;SDS011;1668;49.648;8.570;2023-04-15T01:31:10;6.87;;;3.67;;
3311;SDS011;1668;49.648;8.570;2023-04-15T01:33:38;7.70;;;3.90;;
3311;SDS011;1668;49.648;8.570;2023-04-15T01:36:06;6.43;;;3.80;;
3311;SDS011;1668;49.648;8.570;2023-04-15T01:38:35;6.50;;;3.60;;
3311;SDS011;1668;49.648;8.570;2023-04-15T01:41:02;5.43;;;3.80;;
3311;SDS011;1668;49.648;8.570;2023-04-15T01:43:33;4.53;;;3.53;;
3311;SDS011;1668;49.648;8.570;2023-04-15T01:46:00;7.30;;;3.60;;
3311;SDS011;1668;49.648;8.570;2023-04-15T01:48:27;7.67;;;4.00;;
3311;SDS011;1668;49.648;8.570;2023-04-15T01:50:54;7.27;;;4.00;;
3311;SDS011;1668;49.648;8.570;2023-04-15T01:53:22;6.53;;;3.37;;
3311;SDS011;1668;49.648;8.570;2023-04-15T01:55:50;7.87;;;3.90;;
3311;SDS011;1668;49.648;8.570;2023-04-15T01:58:17;6.73;;;3.53;;
3311;SDS011;1668;49.648;8.570;2023-04-15T02:00:46;5.27;;;3.50;;
3311;SDS011;1668;49.648;8.570;2023-04-15T02:03:12;9.40;;;3.30;;
3311;SDS011;1668;49.648;8.570;2023-04-15T02:05:39;10.30;;;4.03;;
3311;SDS011;1668;49.648;8.570;2023-04-15T02:08:06;7.97;;;3.53;;
3311;SDS011;1668;49.648;8.570;2023-04-15T02:10:34;7.70;;;3.80;;
3311;SDS011;1668;49.648;8.570;2023-04-15T02:13:01;7.23;;;3.40;;
3311;SDS011;1668;49.648;8.570;2023-04-15T02:15:28;5.30;;;3.53;;
3311;SDS011;1668;49.648;8.570;2023-04-15T02:17:58;5.93;;;3.43;;
3311;SDS011;1668;49.648;8.570;2023-04-15T02:20:26;6.70;;;3.83;;
3311;SDS011;1668;49.648;8.570;2023-04-15T02:22:54;10.00;;;4.60;;
3311;SDS011;1668;49.648;8.570;2023-04-15T02:25:21;7.50;;;4.40;;
3311;SDS011;1668;49.648;8.570;2023-04-15T02:27:48;7.93;;;4.53;;
3311;SDS011;1668;49.648;8.570;2023-04-15T02:30:16;8.40;;;4.40;;
3311;SDS011;1668;49.648;8.570;2023-04-15T02:32:43;6.63;;;4.30;;
3311;SDS011;1668;49.648;8.570;2023-04-15T02:35:12;5.27;;;3.87;;
3311;SDS011;1668;49.648;8.570;2023-04-15T02:37:39;7.13;;;4.40;;
3311;SDS011;1668;49.648;8.570;2023-04-15T02:40:08;9.43;;;3.97;;
3311;SDS011;1668;49.648;8.570;2023-04-15T02:42:36;12.50;;;5.00;;
3311;SDS011;1668;49.648;8.570;2023-04-15T02:45:04;6.93;;;4.60;;
3311;SDS011;1668;49.648;8.570;2023-04-15T02:47:32;6.80;;;4.70;;
3311;SDS011;1668;49.648;8.570;2023-04-15T02:50:01;7.37;;;4.40;;
3311;SDS011;1668;49.648;8.570;2023-04-15T02:52:30;8.10;;;4.30;;
3311;SDS011;1668;49.648;8.570;2023-04-15T02:54:57;6.33;;;4.20;;
3311;SDS011;1668;49.648;8.570;2023-04-15T02:57:26;7.47;;;4.53;;
3311;SDS011;1668;49.648;8.570;2023-04-15T02:59:53;7.07;;;4.50;;
3311;SDS011;1668;49.648;8.570;2023-04-15T03:02:20;10.63;;;4.17;;
3311;SDS011;1668;49.648;8.570;2023-04-15T03:04:47;7.03;;;4.10;;
3311;SDS011;1668;49.648;8.570;2023-04-15T03:07:16;5.77;;;4.20;;
3311;SDS011;1668;49.648;8.570;2023-04-15T03:09:44;6.73;;;4.20;;
3311;SDS011;1668;49.648;8.570;2023-04-15T03:12:12;5.70;;;3.90;;
3311;SDS011;1668;49.648;8.570;2023-04-15T03:14:38;12.20;;;4.80;;
3311;SDS011;1668;49.648;8.570;2023-04-15T03:17:05;5.80;;;3.83;;
3311;SDS011;1668;49.648;8.570;2023-04-15T03:19:32;6.50;;;4.10;;
3311;SDS011;1668;49.648;8.570;2023-04-15T03:21:59;7.00;;;4.80;;
3311;SDS011;1668;49.648;8.570;2023-04-15T03:24:26;6.77;;;4.63;;
3311;SDS011;1668;49.648;8.570;2023-04-15T03:26:55;9.33;;;4.43;;
3311;SDS011;1668;49.648;8.570;2023-04-15T03:29:23;7.10;;;4.13;;
3311;SDS011;1668;49.648;8.570;2023-04-15T03:31:50;8.10;;;4.60;;
3311;SDS011;1668;49.648;8.570;2023-04-15T03:34:17;8.33;;;4.40;;
3311;SDS011;1668;49.648;8.570;2023-04-15T03:36:46;6.90;;;3.60;;
3311;SDS011;1668;49.648;8.570;2023-04-15T03:39:13;6.03;;;4.00;;
3311;SDS011;1668;49.648;8.570;2023-04-15T03:41:40;7.60;;;3.77;;
3311;SDS011;1668;49.648;8.570;2023-04-15T03:44:08;7.70;;;4.50;;
3311;SDS011;1668;49.648;8.570;2023-04-15T03:46:35;7.90;;;4.50;;
3311;SDS011;1668;49.648;8.570;2023-04-15T03:49:02;6.43;;;4.00;;
3311;SDS011;1668;49.648;8.570;2023-04-15T03:51:29;7.40;;;3.40;;
3311;SDS011;1668;49.648;8.570;2023-04-15T03:53:56;5.50;;;3.97;;
3311;SDS011;1668;49.648;8.570;2023-04-15T03:56:23;4.80;;;3.50;;
3311;SDS011;1668;49.648;8.570;2023-04-15T03:58:50;6.73;;;4.23;;
3311;SDS011;1668;49.648;8.570;2023-04-15T04:01:18;8.40;;;4.43;;
3311;SDS011;1668;49.648;8.570;2023-04-15T04:03:46;6.30;;;4.10;;
3311;SDS011;1668;49.648;8.570;2023-04-15T04:06:13;5.93;;;4.00;;
3311;SDS011;1668;49.648;8.570;2023-04-15T04:08:41;7.73;;;4.30;;
3311;SDS011;1668;49.648;8.570;2023-04-15T04:11:08;6.97;;;3.90;;
3311;SDS011;1668;49.648;8.570;2023-04-15T04:13:35;9.37;;;5.57;;
3311;SDS011;1668;49.648;8.570;2023-04-15T04:16:06;6.53;;;4.37;;
3311;SDS011;1668;49.648;8.570;2023-04-15T04:22:33;7.67;;;4.37;;
3311;SDS011;1668;49.648;8.570;2023-04-15T04:25:52;6.60;;;4.17;;
3311;SDS011;1668;49.648;8.570;2023-04-15T04:29:07;8.93;;;4.30;;
3311;SDS011;1668;49.648;8.570;2023-04-15T04:32:06;11.40;;;5.10;;
3311;SDS011;1668;49.648;8.570;2023-04-15T04:35:08;6.37;;;4.20;;
3311;SDS011;1668;49.648;8.570;2023-04-15T04:38:06;8.63;;;4.40;;
3311;SDS011;1668;49.648;8.570;2023-04-15T04:41:03;8.27;;;4.40;;
3311;SDS011;1668;49.648;8.570;2023-04-15T04:44:06;11.13;;;4.47;;
3311;SDS011;1668;49.648;8.570;2023-04-15T04:47:07;7.53;;;4.83;;
3311;SDS011;1668;49.648;8.570;2023-04-15T04:50:10;8.93;;;4.90;;
3311;SDS011;1668;49.648;8.570;2023-04-15T04:53:32;8.50;;;4.97;;
3311;SDS011;1668;49.648;8.570;2023-04-15T04:56:39;9.23;;;4.77;;
3311;SDS011;1668;49.648;8.570;2023-04-15T04:59:38;10.50;;;4.30;;
3311;SDS011;1668;49.648;8.570;2023-04-15T05:02:36;7.23;;;4.90;;
3311;SDS011;1668;49.648;8.570;2023-04-15T05:05:33;8.87;;;4.97;;
3311;SDS011;1668;49.648;8.570;2023-04-15T05:08:17;9.10;;;5.07;;
3311;SDS011;1668;49.648;8.570;2023-04-15T05:10:46;6.40;;;4.50;;
3311;SDS011;1668;49.648;8.570;2023-04-15T05:13:13;8.83;;;5.00;;
3311;SDS011;1668;49.648;8.570;2023-04-15T05:15:39;7.60;;;5.00;;
3311;SDS011;1668;49.648;8.570;2023-04-15T05:18:07;7.43;;;4.87;;
3311;SDS011;1668;49.648;8.570;2023-04-15T05:20:34;7.63;;;4.90;;
3311;SDS011;1668;49.648;8.570;2023-04-15T05:23:01;9.90;;;4.87;;
3311;SDS011;1668;49.648;8.570;2023-04-15T05:25:28;9.00;;;4.40;;
3311;SDS011;1668;49.648;8.570;2023-04-15T05:27:56;5.63;;;3.93;;
3311;SDS011;1668;49.648;8.570;2023-04-15T05:30:23;5.47;;;3.93;;
3311;SDS011;1668;49.648;8.570;2023-04-15T05:32:50;5.47;;;3.60;;
3311;SDS011;1668;49.648;8.570;2023-04-15T05:35:17;7.37;;;4.90;;
3311;SDS011;1668;49.648;8.570;2023-04-15T05:37:44;9.20;;;5.03;;
3311;SDS011;1668;49.648;8.570;2023-04-15T05:40:11;8.00;;;5.00;;
3311;SDS011;1668;49.648;8.570;2023-04-15T05:42:38;7.70;;;5.43;;
3311;SDS011;1668;49.648;8.570;2023-04-15T05:45:07;8.73;;;4.70;;
3311;SDS011;1668;49.648;8.570;2023-04-15T05:47:34;7.60;;;5.20;;
3311;SDS011;1668;49.648;8.570;2023-04-15T05:50:01;10.10;;;4.93;;
3311;SDS011;1668;49.648;8.570;2023-04-15T05:52:28;7.07;;;4.87;;
3311;SDS011;1668;49.648;8.570;2023-04-15T05:54:56;7.60;;;4.97;;
3311;SDS011;1668;49.648;8.570;2023-04-15T05:57:23;6.97;;;5.50;;
3311;SDS011;1668;49.648;8.570;2023-04-15T05:59:50;13.83;;;7.23;;
3311;SDS011;1668;49.648;8.570;2023-04-15T06:02:18;9.90;;;6.50;;
3311;SDS011;1668;49.648;8.570;2023-04-15T06:04:45;11.40;;;6.73;;
3311;SDS011;1668;49.648;8.570;2023-04-15T06:07:12;11.63;;;7.53;;
3311;SDS011;1668;49.648;8.570;2023-04-15T06:09:39;12.93;;;6.90;;
3311;SDS011;1668;49.648;8.570;2023-04-15T06:12:06;9.23;;;6.57;;
3311;SDS011;1668;49.648;8.570;2023-04-15T06:14:36;9.47;;;6.77;;
3311;SDS011;1668;49.648;8.570;2023-04-15T06:17:03;12.13;;;6.57;;
3311;SDS011;1668;49.648;8.570;2023-04-15T06:19:31;10.50;;;6.43;;
3311;SDS011;1668;49.648;8.570;2023-04-15T06:21:58;14.60;;;6.50;;
3311;SDS011;1668;49.648;8.570;2023-04-15T06:24:25;11.00;;;6.50;;
3311;SDS011;1668;49.648;8.570;2023-04-15T06:26:52;9.93;;;6.23;;
3311;SDS011;1668;49.648;8.570;2023-04-15T06:29:19;11.70;;;6.33;;
3311;SDS011;1668;49.648;8.570;2023-04-15T06:31:46;11.53;;;6.03;;
3311;SDS011;1668;49.648;8.570;2023-04-15T06:34:13;11.20;;;5.80;;
3311;SDS011;1668;49.648;8.570;2023-04-15T06:36:41;10.90;;;6.80;;
3311;SDS011;1668;49.648;8.570;2023-04-15T06:39:08;8.93;;;6.17;;
3311;SDS011;1668;49.648;8.570;2023-04-15T06:41:35;13.13;;;7.03;;
3311;SDS011;1668;49.648;8.570;2023-04-15T06:44:02;8.70;;;6.17;;
3311;SDS011;1668;49.648;8.570;2023-04-15T06:46:29;12.00;;;6.30;;
3311;SDS011;1668;49.648;8.570;2023-04-15T06:48:56;10.40;;;6.80;;
3311;SDS011;1668;49.648;8.570;2023-04-15T06:51:23;9.67;;;6.00;;
3311;SDS011;1668;49.648;8.570;2023-04-15T06:53:52;7.47;;;5.63;;
3311;SDS011;1668;49.648;8.570;2023-04-15T06:56:19;10.60;;;6.93;;
3311;SDS011;1668;49.648;8.570;2023-04-15T06:58:47;10.30;;;6.30;;
3311;SDS011;1668;49.648;8.570;2023-04-15T07:01:14;9.83;;;6.80;;
3311;SDS011;1668;49.648;8.570;2023-04-15T07:03:41;12.47;;;6.30;;
3311;SDS011;1668;49.648;8.570;2023-04-15T07:06:08;10.83;;;6.17;;
3311;SDS011;1668;49.648;8.570;2023-04-15T07:08:35;15.80;;;6.50;;
3311;SDS011;1668;49.648;8.570;2023-04-15T07:11:03;10.40;;;5.43;;
3311;SDS011;1668;49.648;8.570;2023-04-15T07:13:30;8.80;;;5.90;;
3311;SDS011;1668;49.648;8.570;2023-04-15T07:15:58;12.90;;;7.20;;
3311;SDS011;1668;49.648;8.570;2023-04-15T07:18:25;8.93;;;6.10;;
3311;SDS011;1668;49.648;8.570;2023-04-15T07:20:52;8.57;;;5.60;;
3311;SDS011;1668;49.648;8.570;2023-04-15T07:23:19;10.80;;;6.07;;
3311;SDS011;1668;49.648;8.570;2023-04-15T07:25:46;8.57;;;5.80;;
3311;SDS011;1668;49.648;8.570;2023-04-15T07:28:15;11.70;;;6.07;;
3311;SDS011;1668;49.648;8.570;2023-04-15T07:30:42;8.83;;;5.27;;
3311;SDS011;1668;49.648;8.570;2023-04-15T07:33:09;9.37;;;5.77;;
3311;SDS011;1668;49.648;8.570;2023-04-15T07:35:36;12.33;;;5.17;;
3311;SDS011;1668;49.648;8.570;2023-04-15T07:38:03;9.93;;;5.30;;
3311;SDS011;1668;49.648;8.570;2023-04-15T07:40:29;9.53;;;5.60;;
3311;SDS011;1668;49.648;8.570;2023-04-15T07:42:57;9.37;;;5.50;;
3311;SDS011;1668;49.648;8.570;2023-04-15T07:45:25;8.23;;;5.57;;
3311;SDS011;1668;49.648;8.570;2023-04-15T07:47:52;10.07;;;5.60;;
3311;SDS011;1668;49.648;8.570;2023-04-15T07:50:20;10.13;;;5.07;;
3311;SDS011;1668;49.648;8.570;2023-04-15T07:52:47;10.23;;;6.03;;
3311;SDS011;1668;49.648;8.570;2023-04-15T07:55:15;11.50;;;10.10;;
3311;SDS011;1668;49.648;8.570;2023-04-15T07:57:44;9.70;;;6.80;;
3311;SDS011;1668;49.648;8.570;2023-04-15T08:00:11;7.83;;;5.97;;
3311;SDS011;1668;49.648;8.570;2023-04-15T08:02:41;7.57;;;5.10;;
3311;SDS011;1668;49.648;8.570;2023-04-15T08:05:09;9.27;;;5.37;;
3311;SDS011;1668;49.648;8.570;2023-04-15T08:07:36;7.87;;;5.73;;
3311;SDS011;1668;49.648;8.570;2023-04-15T08:10:04;5.87;;;4.47;;
3311;SDS011;1668;49.648;8.570;2023-04-15T08:12:32;8.53;;;4.77;;
3311;SDS011;1668;49.648;8.570;2023-04-15T08:14:59;7.50;;;5.20;;
3311;SDS011;1668;49.648;8.570;2023-04-15T08:17:27;8.17;;;5.10;;
3311;SDS011;1668;49.648;8.570;2023-04-15T08:19:55;7.83;;;4.73;;
3311;SDS011;1668;49.648;8.570;2023-04-15T08:22:22;7.07;;;4.90;;
3311;SDS011;1668;49.648;8.570;2023-04-15T08:24:49;7.93;;;4.37;;
3311;SDS011;1668;49.648;8.570;2023-04-15T08:27:16;6.70;;;4.47;;
3311;SDS011;1668;49.648;8.570;2023-04-15T08:29:43;9.33;;;4.77;;
3311;SDS011;1668;49.648;8.570;2023-04-15T08:32:11;7.93;;;4.30;;
3311;SDS011;1668;49.648;8.570;2023-04-15T08:34:38;7.50;;;4.93;;
3311;SDS011;1668;49.648;8.570;2023-04-15T08:37:07;9.07;;;4.07;;
3311;SDS011;1668;49.648;8.570;2023-04-15T08:39:34;9.33;;;4.33;;
3311;SDS011;1668;49.648;8.570;2023-04-15T08:42:02;8.20;;;4.23;;
3311;SDS011;1668;49.648;8.570;2023-04-15T08:44:32;7.70;;;4.60;;
3311;SDS011;1668;49.648;8.570;2023-04-15T08:47:01;8.50;;;4.60;;
3311;SDS011;1668;49.648;8.570;2023-04-15T08:49:30;7.60;;;4.50;;
3311;SDS011;1668;49.648;8.570;2023-04-15T08:51:58;10.30;;;4.93;;
3311;SDS011;1668;49.648;8.570;2023-04-15T08:54:27;7.73;;;5.20;;
3311;SDS011;1668;49.648;8.570;2023-04-15T08:56:54;6.90;;;5.00;;
3311;SDS011;1668;49.648;8.570;2023-04-15T08:59:23;7.60;;;5.90;;
3311;SDS011;1668;49.648;8.570;2023-04-15T09:01:50;8.27;;;5.00;;
3311;SDS011;1668;49.648;8.570;2023-04-15T09:04:17;10.97;;;6.00;;
3311;SDS011;1668;49.648;8.570;2023-04-15T09:06:45;9.30;;;6.00;;
3311;SDS011;1668;49.648;8.570;2023-04-15T09:09:12;7.33;;;5.93;;
3311;SDS011;1668;49.648;8.570;2023-04-15T09:11:40;14.13;;;7.17;;
3311;SDS011;1668;49.648;8.570;2023-04-15T09:14:08;8.20;;;6.67;;
3311;SDS011;1668;49.648;8.570;2023-04-15T09:19:25;13.00;;;6.30;;
3311;SDS011;1668;49.648;8.570;2023-04-15T09:21:52;9.57;;;7.50;;
3311;SDS011;1668;49.648;8.570;2023-04-15T09:24:20;8.63;;;6.67;;
3311;SDS011;1668;49.648;8.570;2023-04-15T09:26:51;8.30;;;6.03;;
3311;SDS011;1668;49.648;8.570;2023-04-15T09:29:19;8.63;;;6.30;;
3311;SDS011;1668;49.648;8.570;2023-04-15T09:31:49;7.83;;;6.10;;
3311;SDS011;1668;49.648;8.570;2023-04-15T09:34:16;13.13;;;7.77;;
3311;SDS011;1668;49.648;8.570;2023-04-15T09:36:53;7.73;;;5.90;;
3311;SDS011;1668;49.648;8.570;2023-04-15T09:39:21;6.10;;;5.27;;
3311;SDS011;1668;49.648;8.570;2023-04-15T09:44:33;6.60;;;5.60;;
3311;SDS011;1668;49.648;8.570;2023-04-15T09:47:00;7.77;;;5.53;;
3311;SDS011;1668;49.648;8.570;2023-04-15T09:49:27;6.70;;;4.63;;
3311;SDS011;1668;49.648;8.570;2023-04-15T09:51:56;7.70;;;4.73;;
3311;SDS011;1668;49.648;8.570;2023-04-15T09:54:28;6.67;;;4.70;;
3311;SDS011;1668;49.648;8.570;2023-04-15T09:57:07;9.03;;;5.13;;
3311;SDS011;1668;49.648;8.570;2023-04-15T09:59:36;5.40;;;4.10;;
3311;SDS011;1668;49.648;8.570;2023-04-15T10:02:03;6.43;;;3.97;;
3311;SDS011;1668;49.648;8.570;2023-04-15T10:04:32;4.90;;;3.90;;
3311;SDS011;1668;49.648;8.570;2023-04-15T10:07:02;4.97;;;3.70;;
3311;SDS011;1668;49.648;8.570;2023-04-15T10:09:30;5.43;;;4.10;;
3311;SDS011;1668;49.648;8.570;2023-04-15T10:11:58;6.10;;;3.50;;
3311;SDS011;1668;49.648;8.570;2023-04-15T10:14:27;7.50;;;4.00;;
3311;SDS011;1668;49.648;8.570;2023-04-15T10:16:58;4.27;;;3.53;;
3311;SDS011;1668;49.648;8.570;2023-04-15T10:19:27;7.17;;;3.83;;
3311;SDS011;1668;49.648;8.570;2023-04-15T10:21:56;6.27;;;3.63;;
3311;SDS011;1668;49.648;8.570;2023-04-15T10:24:24;5.10;;;3.27;;
3311;SDS011;1668;49.648;8.570;2023-04-15T10:26:52;5.40;;;3.40;;
3311;SDS011;1668;49.648;8.570;2023-04-15T10:29:19;5.00;;;3.30;;
3311;SDS011;1668;49.648;8.570;2023-04-15T10:31:48;5.73;;;3.67;;
3311;SDS011;1668;49.648;8.570;2023-04-15T10:34:15;5.03;;;3.10;;
3311;SDS011;1668;49.648;8.570;2023-04-15T10:36:43;6.50;;;3.50;;
3311;SDS011;1668;49.648;8.570;2023-04-15T10:42:08;5.23;;;3.37;;
3311;SDS011;1668;49.648;8.570;2023-04-15T10:44:36;5.23;;;3.37;;
3311;SDS011;1668;49.648;8.570;2023-04-15T10:47:12;6.37;;;2.93;;
3311;SDS011;1668;49.648;8.570;2023-04-15T10:49:43;4.70;;;3.23;;
3311;SDS011;1668;49.648;8.570;2023-04-15T10:52:15;4.50;;;2.80;;
3311;SDS011;1668;49.648;8.570;2023-04-15T10:54:42;5.73;;;2.83;;
3311;SDS011;1668;49.648;8.570;2023-04-15T10:57:13;3.50;;;2.37;;
3311;SDS011;1668;49.648;8.570;2023-04-15T11:00:01;3.30;;;2.30;;
3311;SDS011;1668;49.648;8.570;2023-04-15T11:02:40;3.63;;;1.97;;
3311;SDS011;1668;49.648;8.570;2023-04-15T11:05:09;7.30;;;3.70;;
3311;SDS011;1668;49.648;8.570;2023-04-15T11:07:37;2.60;;;1.90;;
3311;SDS011;1668;49.648;8.570;2023-04-15T11:13:17;2.30;;;1.50;;
3311;SDS011;1668;49.648;8.570;2023-04-15T11:15:47;1.80;;;1.63;;
3311;SDS011;1668;49.648;8.570;2023-04-15T11:18:18;3.60;;;1.83;;
3311;SDS011;1668;49.648;8.570;2023-04-15T11:20:46;3.00;;;1.77;;
3311;SDS011;1668;49.648;8.570;2023-04-15T11:23:16;5.07;;;2.37;;
3311;SDS011;1668;49.648;8.570;2023-04-15T11:25:44;3.20;;;2.23;;
3311;SDS011;1668;49.648;8.570;2023-04-15T11:28:12;3.30;;;2.00;;
3311;SDS011;1668;49.648;8.570;2023-04-15T11:30:39;5.27;;;2.10;;
3311;SDS011;1668;49.648;8.570;2023-04-15T11:33:09;3.30;;;2.00;;
3311;SDS011;1668;49.648;8.570;2023-04-15T11:35:41;2.50;;;1.80;;
3311;SDS011;1668;49.648;8.570;2023-04-15T11:38:08;3.60;;;1.77;;
3311;SDS011;1668;49.648;8.570;2023-04-15T11:40:36;3.27;;;2.20;;
3311;SDS011;1668;49.648;8.570;2023-04-15T11:43:05;4.53;;;2.07;;
3311;SDS011;1668;49.648;8.570;2023-04-15T11:45:33;5.10;;;2.10;;
3311;SDS011;1668;49.648;8.570;2023-04-15T11:48:07;2.63;;;2.10;;
3311;SDS011;1668;49.648;8.570;2023-04-15T11:50:35;5.10;;;2.40;;
3311;SDS011;1668;49.648;8.570;2023-04-15T11:53:06;3.67;;;2.10;;
3311;SDS011;1668;49.648;8.570;2023-04-15T11:55:41;6.13;;;2.50;;
3311;SDS011;1668;49.648;8.570;2023-04-15T11:58:10;2.67;;;2.37;;
3311;SDS011;1668;49.648;8.570;2023-04-15T12:00:39;3.30;;;2.00;;
3311;SDS011;1668;49.648;8.570;2023-04-15T12:03:10;4.13;;;2.60;;
3311;SDS011;1668;49.648;8.570;2023-04-15T12:11:34;3.63;;;2.50;;
3311;SDS011;1668;49.648;8.570;2023-04-15T12:14:03;4.57;;;2.50;;
3311;SDS011;1668;49.648;8.570;2023-04-15T12:16:32;8.60;;;3.00;;
3311;SDS011;1668;49.648;8.570;2023-04-15T12:19:03;5.50;;;3.03;;
3311;SDS011;1668;49.648;8.570;2023-04-15T12:21:35;4.00;;;2.63;;
3311;SDS011;1668;49.648;8.570;2023-04-15T12:24:06;3.37;;;2.33;;
3311;SDS011;1668;49.648;8.570;2023-04-15T12:26:34;3.50;;;2.30;;
3311;SDS011;1668;49.648;8.570;2023-04-15T12:29:04;4.90;;;2.23;;
3311;SDS011;1668;49.648;8.570;2023-04-15T12:31:32;4.40;;;2.23;;
3311;SDS011;1668;49.648;8.570;2023-04-15T12:34:01;4.00;;;2.40;;
3311;SDS011;1668;49.648;8.570;2023-04-15T12:36:28;5.37;;;2.27;;
3311;SDS011;1668;49.648;8.570;2023-04-15T12:39:00;3.70;;;2.10;;
3311;SDS011;1668;49.648;8.570;2023-04-15T12:41:29;2.50;;;1.90;;
3311;SDS011;1668;49.648;8.570;2023-04-15T12:43:56;3.23;;;1.87;;
3311;SDS011;1668;49.648;8.570;2023-04-15T12:46:24;2.43;;;1.90;;
3311;SDS011;1668;49.648;8.570;2023-04-15T12:48:51;3.30;;;1.80;;
3311;SDS011;1668;49.648;8.570;2023-04-15T12:51:18;4.90;;;2.07;;
3311;SDS011;1668;49.648;8.570;2023-04-15T12:53:46;4.50;;;2.30;;
3311;SDS011;1668;49.648;8.570;2023-04-15T12:56:14;3.97;;;2.00;;
3311;SDS011;1668;49.648;8.570;2023-04-15T12:58:43;3.97;;;1.90;;
3311;SDS011;1668;49.648;8.570;2023-04-15T13:01:10;3.10;;;2.30;;
3311;SDS011;1668;49.648;8.570;2023-04-15T13:03:37;2.20;;;1.90;;
3311;SDS011;1668;49.648;8.570;2023-04-15T13:06:04;11.70;;;1.80;;
3311;SDS011;1668;49.648;8.570;2023-04-15T13:08:31;4.40;;;1.60;;
3311;SDS011;1668;49.648;8.570;2023-04-15T13:10:58;5.03;;;1.90;;
3311;SDS011;1668;49.648;8.570;2023-04-15T13:13:25;4.10;;;1.67;;
3311;SDS011;1668;49.648;8.570;2023-04-15T13:15:54;3.37;;;1.73;;
3311;SDS011;1668;49.648;8.570;2023-04-15T13:18:21;3.57;;;1.70;;
3311;SDS011;1668;49.648;8.570;2023-04-15T13:20:48;1.93;;;1.40;;
3311;SDS011;1668;49.648;8.570;2023-04-15T13:23:15;2.87;;;1.50;;
3311;SDS011;1668;49.648;8.570;2023-04-15T13:25:42;2.13;;;1.33;;
3311;SDS011;1668;49.648;8.570;2023-04-15T13:28:12;4.37;;;1.30;;
3311;SDS011;1668;49.648;8.570;2023-04-15T13:30:39;2.60;;;1.20;;
3311;SDS011;1668;49.648;8.570;2023-04-15T13:33:09;2.53;;;1.40;;
3311;SDS011;1668;49.648;8.570;2023-04-15T13:35:36;1.90;;;1.23;;
3311;SDS011;1668;49.648;8.570;2023-04-15T13:38:04;3.60;;;2.10;;
3311;SDS011;1668;49.648;8.570;2023-04-15T13:40:31;2.80;;;2.30;;
3311;SDS011;1668;49.648;8.570;2023-04-15T13:42:58;3.07;;;2.20;;
3311;SDS011;1668;49.648;8.570;2023-04-15T13:45:26;3.43;;;2.67;;
3311;SDS011;1668;49.648;8.570;2023-04-15T13:47:54;4.60;;;2.70;;
3311;SDS011;1668;49.648;8.570;2023-04-15T13:50:22;2.83;;;2.40;;
3311;SDS011;1668;49.648;8.570;2023-04-15T13:52:49;5.60;;;2.70;;
3311;SDS011;1668;49.648;8.570;2023-04-15T13:55:16;4.57;;;2.50;;
3311;SDS011;1668;49.648;8.570;2023-04-15T13:57:43;2.30;;;1.80;;
3311;SDS011;1668;49.648;8.570;2023-04-15T14:00:10;3.93;;;1.70;;
3311;SDS011;1668;49.648;8.570;2023-04-15T14:02:39;2.40;;;1.50;;
3311;SDS011;1668;49.648;8.570;2023-04-15T14:05:06;1.80;;;1.70;;
3311;SDS011;1668;49.648;8.570;2023-04-15T14:07:35;2.70;;;1.70;;
3311;SDS011;1668;49.648;8.570;2023-04-15T14:10:02;2.63;;;2.00;;
3311;SDS011;1668;49.648;8.570;2023-04-15T14:12:30;4.93;;;2.50;;
3311;SDS011;1668;49.648;8.570;2023-04-15T14:14:57;2.13;;;1.63;;
3311;SDS011;1668;49.648;8.570;2023-04-15T14:17:24;2.40;;;1.80;;
3311;SDS011;1668;49.648;8.570;2023-04-15T14:19:51;2.77;;;1.50;;
3311;SDS011;1668;49.648;8.570;2023-04-15T14:22:18;3.67;;;2.17;;
3311;SDS011;1668;49.648;8.570;2023-04-15T14:24:46;2.80;;;1.70;;
3311;SDS011;1668;49.648;8.570;2023-04-15T14:27:14;2.33;;;1.83;;
3311;SDS011;1668;49.648;8.570;2023-04-15T14:29:41;2.57;;;1.80;;
3311;SDS011;1668;49.648;8.570;2023-04-15T14:32:08;5.73;;;1.80;;
3311;SDS011;1668;49.648;8.570;2023-04-15T14:34:35;1.73;;;1.33;;
3311;SDS011;1668;49.648;8.570;2023-04-15T14:37:02;1.67;;;1.57;;
3311;SDS011;1668;49.648;8.570;2023-04-15T14:39:29;1.97;;;1.77;;
3311;SDS011;1668;49.648;8.570;2023-04-15T14:41:57;1.37;;;1.23;;
3311;SDS011;1668;49.648;8.570;2023-04-15T14:44:25;1.70;;;1.20;;
3311;SDS011;1668;49.648;8.570;2023-04-15T14:46:52;1.60;;;1.40;;
3311;SDS011;1668;49.648;8.570;2023-04-15T14:49:19;5.60;;;1.50;;
3311;SDS011;1668;49.648;8.570;2023-04-15T14:51:47;1.50;;;1.40;;
3311;SDS011;1668;49.648;8.570;2023-04-15T14:54:13;1.90;;;1.40;;
3311;SDS011;1668;49.648;8.570;2023-04-15T14:56:40;3.33;;;1.70;;
3311;SDS011;1668;49.648;8.570;2023-04-15T14:59:09;1.70;;;1.40;;
3311;SDS011;1668;49.648;8.570;2023-04-15T15:01:36;1.30;;;1.20;;
3311;SDS011;1668;49.648;8.570;2023-04-15T15:04:03;1.70;;;1.50;;
3311;SDS011;1668;49.648;8.570;2023-04-15T15:06:30;1.77;;;1.50;;
3311;SDS011;1668;49.648;8.570;2023-04-15T15:08:57;1.40;;;1.27;;
3311;SDS011;1668;49.648;8.570;2023-04-15T15:11:25;1.70;;;1.40;;
3311;SDS011;1668;49.648;8.570;2023-04-15T15:13:52;1.80;;;1.57;;
3311;SDS011;1668;49.648;8.570;2023-04-15T15:16:21;2.00;;;1.80;;
3311;SDS011;1668;49.648;8.570;2023-04-15T15:18:48;2.90;;;2.43;;
3311;SDS011;1668;49.648;8.570;2023-04-15T15:21:15;3.20;;;1.57;;
3311;SDS011;1668;49.648;8.570;2023-04-15T15:23:42;1.77;;;1.47;;
3311;SDS011;1668;49.648;8.570;2023-04-15T15:26:09;1.90;;;1.70;;
3311;SDS011;1668;49.648;8.570;2023-04-15T15:28:37;2.43;;;1.30;;
3311;SDS011;1668;49.648;8.570;2023-04-15T15:31:04;1.27;;;1.17;;
3311;SDS011;1668;49.648;8.570;2023-04-15T15:33:32;1.83;;;1.00;;
3311;SDS011;1668;49.648;8.570;2023-04-15T15:35:59;1.93;;;1.43;;
3311;SDS011;1668;49.648;8.570;2023-04-15T15:38:26;2.13;;;1.40;;
3311;SDS011;1668;49.648;8.570;2023-04-15T15:40:53;1.90;;;1.47;;
3311;SDS011;1668;49.648;8.570;2023-04-15T15:43:20;2.37;;;1.60;;
3311;SDS011;1668;49.648;8.570;2023-04-15T15:45:47;1.43;;;1.33;;